Time;durP1;ratioP1;P1;durP2;ratioP2;P2;SDS_P1;SDS_P2;PMS_P1;PMS_P2;Temp;Humidity;BMP_temperature;BMP_pressure;BME280_temperature;BME280_humidity;BME280_pressure;Samples;Min_cycle;Max_cycle;Signal;HPM_P1;HPM_P2
2023/03/19 00:02:16;;;;;;;5.00;3.37;;;10.60;99.90;;;;;;4984546;28;20101;-67
2023/03/19 00:04:42;;;;;;;6.90;3.17;;;10.50;99.90;;;;;;4971067;28;20502;-67
2023/03/19 00:07:07;;;;;;;5.33;3.17;;;10.50;99.90;;;;;;4978128;28;20448;-67
2023/03/19 00:09:33;;;;;;;10.53;4.10;;;10.50;99.90;;;;;;5001576;28;20030;-67
2023/03/19 00:11:59;;;;;;;5.07;3.17;;;10.60;99.90;;;;;;4986554;28;20214;-67
2023/03/19 00:14:24;;;;;;;5.60;3.67;;;10.50;99.90;;;;;;4986544;28;20186;-67
2023/03/19 00:16:50;;;;;;;5.67;2.97;;;10.60;99.90;;;;;;5005590;28;20037;-67
2023/03/19 00:19:16;;;;;;;8.07;3.50;;;10.60;99.90;;;;;;5004372;28;20184;-67
2023/03/19 00:21:42;;;;;;;7.22;3.78;;;10.60;99.90;;;;;;4987556;28;20042;-67
2023/03/19 00:24:08;;;;;;;6.20;3.70;;;10.60;99.90;;;;;;4985972;28;20242;-67
2023/03/19 00:26:35;;;;;;;6.68;3.88;;;10.60;99.90;;;;;;4987539;28;20423;-67
2023/03/19 00:29:01;;;;;;;;;;;10.70;99.90;;;;;;4985430;28;20072;-67
2023/03/19 00:31:27;;;;;;;6.32;3.35;;;10.70;99.90;;;;;;4980876;28;20404;-68
2023/03/19 00:33:53;;;;;;;5.80;3.47;;;10.70;99.90;;;;;;4970332;28;20371;-67
2023/03/19 00:36:20;;;;;;;6.05;3.40;;;10.70;99.90;;;;;;4990146;28;20745;-67
2023/03/19 00:38:46;;;;;;;7.40;3.60;;;10.70;99.90;;;;;;4966510;28;20095;-67
2023/03/19 00:41:12;;;;;;;7.63;3.42;;;10.70;99.90;;;;;;4983891;28;20045;-67
2023/03/19 00:43:40;;;;;;;5.90;3.08;;;10.70;99.90;;;;;;4998127;28;20557;-67
2023/03/19 00:46:05;;;;;;;4.57;3.03;;;10.80;99.90;;;;;;5004347;28;20050;-67
2023/03/19 00:48:32;;;;;;;6.78;2.85;;;10.80;99.90;;;;;;4969843;28;20554;-67
2023/03/19 00:51:06;;;;;;;6.63;3.22;;;10.80;99.90;;;;;;4985314;28;20407;-68
2023/03/19 00:53:35;;;;;;;5.15;2.67;;;10.80;99.90;;;;;;4986686;28;20095;-67
2023/03/19 00:56:01;;;;;;;7.70;2.83;;;10.80;99.90;;;;;;4984352;28;20406;-67
2023/03/19 00:58:27;;;;;;;4.95;2.80;;;10.80;99.90;;;;;;4983329;28;20100;-67
2023/03/19 01:00:53;;;;;;;7.88;2.67;;;10.80;99.90;;;;;;4986266;28;20042;-69
2023/03/19 01:03:20;;;;;;;6.03;2.58;;;10.80;99.90;;;;;;5002198;28;20038;-69
2023/03/19 01:05:49;;;;;;;;;;;10.70;99.90;;;;;;4987157;28;20050;-69
2023/03/19 01:08:18;;;;;;;4.28;2.25;;;10.80;99.90;;;;;;4981844;28;19928;-68
2023/03/19 01:10:44;;;;;;;3.85;2.00;;;10.70;99.90;;;;;;4987222;28;20061;-69
2023/03/19 01:13:10;;;;;;;5.13;2.40;;;10.80;99.90;;;;;;4963862;28;20046;-69
2023/03/19 01:15:38;;;;;;;3.22;2.00;;;10.80;99.90;;;;;;5000501;28;20096;-68
2023/03/19 01:18:04;;;;;;;3.85;2.13;;;10.80;99.90;;;;;;4968886;28;20462;-69
2023/03/19 01:20:30;;;;;;;4.65;2.25;;;10.80;99.90;;;;;;4999566;28;20055;-69
2023/03/19 01:22:56;;;;;;;4.18;2.30;;;10.80;99.90;;;;;;4997904;28;20140;-69
2023/03/19 01:25:21;;;;;;;2.67;1.88;;;10.80;99.90;;;;;;5002446;28;20488;-69
2023/03/19 01:27:47;;;;;;;3.63;2.17;;;10.80;99.90;;;;;;4982782;28;20046;-69
2023/03/19 01:30:13;;;;;;;5.70;2.03;;;10.80;99.90;;;;;;4997442;28;20044;-69
2023/03/19 01:32:39;;;;;;;3.90;1.80;;;10.70;99.90;;;;;;4996560;28;20287;-69
2023/03/19 01:35:05;;;;;;;3.08;1.90;;;10.70;99.90;;;;;;5000009;28;20050;-69
2023/03/19 01:37:31;;;;;;;4.22;2.20;;;10.70;99.90;;;;;;5000504;28;20400;-69
2023/03/19 01:39:57;;;;;;;;;;;10.70;99.90;;;;;;4968092;28;20385;-70
2023/03/19 01:42:23;;;;;;;3.13;1.70;;;10.70;99.90;;;;;;4983215;28;20240;-69
2023/03/19 01:44:49;;;;;;;2.83;1.63;;;10.70;99.90;;;;;;5003118;28;20537;-69
2023/03/19 01:47:16;;;;;;;3.03;1.90;;;10.60;99.90;;;;;;4993935;28;20388;-69
2023/03/19 01:49:44;;;;;;;3.47;2.03;;;10.60;99.90;;;;;;4993727;28;20099;-69
2023/03/19 01:52:11;;;;;;;2.92;1.73;;;10.60;99.90;;;;;;4984558;28;20046;-69
2023/03/19 01:54:38;;;;;;;5.18;1.70;;;10.60;99.90;;;;;;4985998;28;20161;-69
2023/03/19 01:57:08;;;;;;;3.00;1.70;;;10.60;99.90;;;;;;4984441;28;20559;-69
2023/03/19 01:59:47;;;;;;;3.67;1.80;;;10.60;99.90;;;;;;4995588;28;20048;-70
2023/03/19 02:02:19;;;;;;;4.05;1.92;;;10.60;99.90;;;;;;4998905;28;20116;-69
2023/03/19 02:04:50;;;;;;;3.22;2.05;;;10.60;99.90;;;;;;4965511;28;20554;-70
2023/03/19 02:07:16;;;;;;;2.90;1.50;;;10.50;99.90;;;;;;4998007;28;20076;-69
2023/03/19 02:09:42;;;;;;;3.05;1.90;;;10.50;99.90;;;;;;4967359;28;20136;-69
2023/03/19 02:12:08;;;;;;;;;;;10.50;99.90;;;;;;5001476;28;20060;-70
2023/03/19 02:14:34;;;;;;;2.90;1.73;;;10.50;99.90;;;;;;4998938;28;19926;-69
2023/03/19 02:17:00;;;;;;;3.88;1.83;;;10.50;99.90;;;;;;5003091;28;20049;-69
2023/03/19 02:19:33;;;;;;;4.07;1.87;;;10.60;99.90;;;;;;4985153;28;20803;-69
2023/03/19 02:22:00;;;;;;;3.00;1.73;;;10.50;99.90;;;;;;5002812;28;20041;-69
2023/03/19 02:24:33;;;;;;;4.50;1.85;;;10.50;99.90;;;;;;4984834;28;20511;-69
2023/03/19 02:26:59;;;;;;;4.57;1.85;;;10.50;99.90;;;;;;4983832;28;20046;-69
2023/03/19 02:29:25;;;;;;;3.33;1.83;;;10.50;99.90;;;;;;4983796;28;20046;-69
2023/03/19 02:31:50;;;;;;;3.45;2.10;;;10.50;99.90;;;;;;4996721;28;20073;-69
2023/03/19 02:34:19;;;;;;;2.70;1.73;;;10.50;99.90;;;;;;5002812;28;20034;-69
2023/03/19 02:36:50;;;;;;;4.43;2.05;;;10.50;99.90;;;;;;4985587;28;20487;-69
2023/03/19 02:39:28;;;;;;;5.05;2.20;;;10.50;99.90;;;;;;4978727;28;20120;-69
2023/03/19 02:41:56;;;;;;;3.13;1.95;;;10.50;99.90;;;;;;4975769;28;20436;-69
2023/03/19 02:44:21;;;;;;;3.63;2.03;;;10.50;99.90;;;;;;4997389;28;20181;-69
2023/03/19 02:46:47;;;;;;;3.33;2.00;;;10.50;99.90;;;;;;4980793;28;20256;-69
2023/03/19 02:49:12;;;;;;;6.60;1.60;;;10.50;99.90;;;;;;4995787;28;20412;-69
2023/03/19 02:51:38;;;;;;;3.73;1.90;;;10.50;99.90;;;;;;5002130;28;20175;-70
2023/03/19 02:54:04;;;;;;;3.95;2.03;;;10.50;99.90;;;;;;4964309;28;20427;-70
2023/03/19 02:56:30;;;;;;;2.72;1.40;;;10.40;99.90;;;;;;5001087;28;20104;-70
2023/03/19 02:58:55;;;;;;;3.27;1.93;;;10.40;99.90;;;;;;4981297;28;20037;-69
2023/03/19 03:01:21;;;;;;;5.30;2.17;;;10.50;99.90;;;;;;4981828;28;20129;-69
2023/03/19 03:03:47;;;;;;;3.50;2.07;;;10.50;99.90;;;;;;4999120;28;20754;-69
2023/03/19 03:06:13;;;;;;;2.33;1.40;;;10.50;99.90;;;;;;4983080;28;20049;-69
2023/03/19 03:08:38;;;;;;;4.32;1.73;;;10.50;99.90;;;;;;4968832;28;20046;-70
2023/03/19 03:11:04;;;;;;;2.42;1.58;;;10.50;99.90;;;;;;4997561;28;20172;-69
2023/03/19 03:13:30;;;;;;;2.47;1.60;;;10.50;99.90;;;;;;4981328;28;20554;-69
2023/03/19 03:15:56;;;;;;;2.95;1.83;;;10.40;99.90;;;;;;4985411;28;20455;-69
2023/03/19 03:18:22;;;;;;;5.35;1.90;;;10.50;99.90;;;;;;4994687;28;20046;-69
2023/03/19 03:20:47;;;;;;;3.10;1.80;;;10.40;99.90;;;;;;4978944;28;20081;-69
2023/03/19 03:23:13;;;;;;;2.55;1.45;;;10.50;99.90;;;;;;4984203;28;20045;-69
2023/03/19 03:25:39;;;;;;;2.63;1.47;;;10.50;99.90;;;;;;5001209;28;20045;-70
2023/03/19 03:28:05;;;;;;;2.72;1.65;;;10.40;99.90;;;;;;4966754;28;20096;-69
2023/03/19 03:30:31;;;;;;;3.08;1.55;;;10.40;99.90;;;;;;4983843;28;20092;-69
2023/03/19 03:32:57;;;;;;;3.83;1.50;;;10.50;99.90;;;;;;4997718;28;20069;-69
2023/03/19 03:35:22;;;;;;;3.30;1.40;;;10.40;99.90;;;;;;4983303;28;20505;-69
2023/03/19 03:37:49;;;;;;;4.27;1.77;;;10.50;99.90;;;;;;4996450;28;20042;-68
2023/03/19 03:40:16;;;;;;;2.78;1.67;;;10.50;99.90;;;;;;4983815;28;20038;-69
2023/03/19 03:42:42;;;;;;;3.42;1.45;;;10.40;99.90;;;;;;5002014;28;20500;-69
2023/03/19 03:45:09;;;;;;;3.05;1.70;;;10.50;99.90;;;;;;4977494;28;20054;-69
2023/03/19 03:47:36;;;;;;;1.98;1.38;;;10.40;99.90;;;;;;4980432;28;20107;-69
2023/03/19 03:50:03;;;;;;;;;;;10.50;99.90;;;;;;4982700;28;20124;-70
2023/03/19 03:52:30;;;;;;;1.90;1.17;;;10.40;99.90;;;;;;4983378;28;19921;-69
2023/03/19 03:54:59;;;;;;;2.22;1.33;;;10.40;99.90;;;;;;4982956;28;20046;-69
2023/03/19 03:57:26;;;;;;;4.18;1.80;;;10.40;99.90;;;;;;4982753;28;20046;-69
2023/03/19 03:59:52;;;;;;;6.68;1.67;;;10.40;99.90;;;;;;4980648;28;20092;-69
2023/03/19 04:02:18;;;;;;;2.65;1.58;;;10.40;99.90;;;;;;4984077;28;20053;-69
2023/03/19 04:04:43;;;;;;;3.77;2.10;;;10.40;99.90;;;;;;4983995;28;20517;-69
2023/03/19 04:07:09;;;;;;;2.93;1.90;;;10.40;99.90;;;;;;4999445;28;20042;-69
2023/03/19 04:09:35;;;;;;;3.23;1.40;;;10.40;99.90;;;;;;4992792;28;20033;-69
2023/03/19 04:12:01;;;;;;;;;;;10.40;99.90;;;;;;5002429;28;20374;-69
2023/03/19 04:14:27;;;;;;;3.10;1.90;;;10.40;99.90;;;;;;4985666;28;20137;-69
2023/03/19 04:16:53;;;;;;;3.60;2.00;;;10.40;99.90;;;;;;5000770;28;20038;-69
2023/03/19 04:19:19;;;;;;;4.30;2.28;;;10.40;99.90;;;;;;5003759;28;20106;-69
2023/03/19 04:21:45;;;;;;;4.22;2.50;;;10.40;99.90;;;;;;4997810;28;20088;-69
2023/03/19 04:24:11;;;;;;;;;;;10.40;99.90;;;;;;5000027;28;20382;-69
2023/03/19 04:26:37;;;;;;;5.80;2.40;;;10.40;99.90;;;;;;5004212;28;20430;-69
2023/03/19 04:29:03;;;;;;;5.70;2.63;;;10.40;99.90;;;;;;4987867;28;20068;-69
2023/03/19 04:31:29;;;;;;;4.30;2.50;;;10.40;99.90;;;;;;5001081;28;22483;-69
2023/03/19 04:33:55;;;;;;;4.63;2.83;;;10.40;99.90;;;;;;5001773;28;20041;-69
2023/03/19 04:36:21;;;;;;;4.40;2.77;;;10.40;99.90;;;;;;4987592;28;20357;-69
2023/03/19 04:38:46;;;;;;;5.13;2.97;;;10.40;99.90;;;;;;4986869;28;20188;-69
2023/03/19 04:41:15;;;;;;;7.70;4.00;;;10.40;99.90;;;;;;5004653;28;20130;-69
2023/03/19 04:43:40;;;;;;;6.47;3.28;;;10.40;99.90;;;;;;5001673;28;20529;-69
2023/03/19 04:46:09;;;;;;;5.30;3.25;;;10.40;99.90;;;;;;4986355;28;20038;-69
2023/03/19 04:48:35;;;;;;;5.70;3.35;;;10.40;99.90;;;;;;4997059;28;20042;-69
2023/03/19 04:51:07;;;;;;;10.60;3.83;;;10.30;99.90;;;;;;4984298;28;20045;-69
2023/03/19 04:53:33;;;;;;;6.30;3.67;;;10.30;99.90;;;;;;5004914;28;20171;-68
2023/03/19 04:55:58;;;;;;;8.27;3.97;;;10.30;99.90;;;;;;4986561;28;20070;-69
2023/03/19 04:58:24;;;;;;;6.40;3.70;;;10.30;99.90;;;;;;5003966;28;20249;-69
2023/03/19 05:00:50;;;;;;;5.80;3.60;;;10.20;99.90;;;;;;4983319;28;20389;-69
2023/03/19 05:03:16;;;;;;;7.20;4.20;;;10.20;99.90;;;;;;4983191;28;20479;-69
2023/03/19 05:05:42;;;;;;;6.60;3.90;;;10.20;99.90;;;;;;4983584;28;20500;-69
2023/03/19 05:08:08;;;;;;;7.05;4.10;;;10.10;99.90;;;;;;4983610;28;20060;-69
2023/03/19 05:10:35;;;;;;;7.72;4.38;;;10.10;99.90;;;;;;4986077;28;20050;-69
2023/03/19 05:13:01;;;;;;;10.63;5.15;;;10.00;99.90;;;;;;4992272;28;20145;-69
2023/03/19 05:15:26;;;;;;;8.00;4.83;;;10.00;99.90;;;;;;5001620;28;20091;-69
2023/03/19 05:17:52;;;;;;;11.33;5.30;;;9.90;99.90;;;;;;5001685;28;20808;-69
2023/03/19 05:20:18;;;;;;;10.02;5.68;;;9.90;99.90;;;;;;4986676;28;20038;-68
2023/03/19 05:22:45;;;;;;;9.95;5.15;;;9.90;99.90;;;;;;5000618;28;20061;-69
2023/03/19 05:25:12;;;;;;;9.82;5.53;;;9.80;99.90;;;;;;4986145;28;20050;-69
2023/03/19 05:27:38;;;;;;;14.77;6.38;;;9.70;99.90;;;;;;4986688;28;20148;-69
2023/03/19 05:30:05;;;;;;;11.73;6.72;;;9.80;99.90;;;;;;4985018;28;20105;-69
2023/03/19 05:32:31;;;;;;;11.57;6.80;;;9.60;99.90;;;;;;5002295;28;20111;-69
2023/03/19 05:34:57;;;;;;;15.70;7.30;;;9.60;99.90;;;;;;4969462;28;20058;-69
2023/03/19 05:37:23;;;;;;;13.63;7.07;;;9.60;99.90;;;;;;4985430;28;20045;-69
2023/03/19 05:39:49;;;;;;;14.73;8.13;;;9.60;99.90;;;;;;4984717;28;20132;-69
2023/03/19 05:42:15;;;;;;;14.38;7.95;;;9.50;99.90;;;;;;4986368;28;20053;-69
2023/03/19 05:44:41;;;;;;;14.93;7.63;;;9.50;99.90;;;;;;5003043;28;20674;-69
2023/03/19 05:47:07;;;;;;;13.90;7.23;;;9.50;99.90;;;;;;4986219;28;20249;-69
2023/03/19 05:49:33;;;;;;;15.35;7.88;;;9.40;99.90;;;;;;4984577;28;20069;-69
2023/03/19 05:51:59;;;;;;;15.03;7.87;;;9.40;99.90;;;;;;5003665;28;20071;-69
2023/03/19 05:54:25;;;;;;;14.57;7.33;;;9.40;99.90;;;;;;4999780;28;20135;-69
2023/03/19 05:56:50;;;;;;;15.07;8.13;;;9.40;99.90;;;;;;4978865;28;20350;-68
2023/03/19 05:59:16;;;;;;;16.27;8.00;;;9.40;99.90;;;;;;4999612;28;20357;-69
2023/03/19 06:01:42;;;;;;;14.27;7.80;;;9.40;99.90;;;;;;4986707;28;20429;-69
2023/03/19 06:04:07;;;;;;;14.68;8.02;;;9.40;99.90;;;;;;4966007;28;20133;-69
2023/03/19 06:06:33;;;;;;;13.10;7.63;;;9.50;99.90;;;;;;4986710;28;20053;-69
2023/03/19 06:08:59;;;;;;;13.05;7.38;;;9.40;99.90;;;;;;4984393;28;20049;-69
2023/03/19 06:11:25;;;;;;;15.18;8.50;;;9.40;99.90;;;;;;4998071;28;20041;-69
2023/03/19 06:13:51;;;;;;;12.63;7.68;;;9.40;99.90;;;;;;4998203;28;20045;-69
2023/03/19 06:16:16;;;;;;;15.65;8.18;;;9.30;99.90;;;;;;4969308;28;20058;-69
2023/03/19 06:18:42;;;;;;;13.67;7.27;;;9.40;99.90;;;;;;4985712;28;20070;-69
2023/03/19 06:21:07;;;;;;;16.50;7.67;;;9.30;99.90;;;;;;4985725;28;20475;-68
2023/03/19 06:23:33;;;;;;;12.50;6.90;;;9.30;99.90;;;;;;4983530;28;20113;-69
2023/03/19 06:25:59;;;;;;;15.87;7.57;;;9.40;99.90;;;;;;4993380;28;20512;-68
2023/03/19 06:28:25;;;;;;;16.93;7.60;;;9.30;99.90;;;;;;4983053;28;20054;-69
2023/03/19 06:30:53;;;;;;;11.93;6.63;;;9.40;99.90;;;;;;4983756;28;20541;-68
2023/03/19 06:33:19;;;;;;;13.45;7.43;;;9.30;99.90;;;;;;4966596;28;20065;-69
2023/03/19 06:35:44;;;;;;;13.83;7.03;;;9.40;99.90;;;;;;4994017;28;20412;-69
2023/03/19 06:38:10;;;;;;;12.87;7.47;;;9.30;99.90;;;;;;4993488;28;20034;-69
2023/03/19 06:40:36;;;;;;;13.23;7.00;;;9.30;99.90;;;;;;4980169;28;20121;-69
2023/03/19 06:43:02;;;;;;;11.65;6.45;;;9.40;99.90;;;;;;4999322;28;20053;-69
2023/03/19 06:45:27;;;;;;;13.40;7.17;;;9.40;99.90;;;;;;5003833;28;20068;-69
2023/03/19 06:47:53;;;;;;;14.53;7.17;;;9.40;99.90;;;;;;5002607;28;20119;-68
2023/03/19 06:50:18;;;;;;;11.77;7.00;;;9.50;99.90;;;;;;4984711;28;20053;-69
2023/03/19 06:52:44;;;;;;;12.20;7.00;;;9.50;99.90;;;;;;4968763;28;20052;-69
2023/03/19 06:55:11;;;;;;;12.45;7.07;;;9.60;99.90;;;;;;4999551;28;20042;-69
2023/03/19 06:57:37;;;;;;;11.95;6.13;;;9.60;99.90;;;;;;4967593;28;20061;-69
2023/03/19 07:00:05;;;;;;;11.98;6.40;;;9.60;99.90;;;;;;4982652;28;20042;-69
2023/03/19 07:02:30;;;;;;;13.10;6.32;;;9.60;99.90;;;;;;4983878;28;20123;-69
2023/03/19 07:04:56;;;;;;;12.33;6.63;;;9.60;99.90;;;;;;5002754;28;20104;-69
2023/03/19 07:07:21;;;;;;;13.17;6.57;;;9.60;99.90;;;;;;4985190;28;20054;-69
2023/03/19 07:09:47;;;;;;;13.60;6.50;;;9.70;99.90;;;;;;4984870;28;20053;-68
2023/03/19 07:12:13;;;;;;;11.30;5.60;;;9.60;99.90;;;;;;4979310;28;20369;-68
2023/03/19 07:14:38;;;;;;;11.77;6.53;;;9.70;99.90;;;;;;4983413;28;20096;-69
2023/03/19 07:17:04;;;;;;;10.07;6.07;;;9.70;99.90;;;;;;4969371;28;20308;-69
2023/03/19 07:19:30;;;;;;;10.48;6.18;;;9.70;99.90;;;;;;4968776;28;20048;-69
2023/03/19 07:21:55;;;;;;;15.43;6.67;;;9.70;99.90;;;;;;4999400;28;20118;-69
2023/03/19 07:24:21;;;;;;;10.53;6.33;;;9.80;99.90;;;;;;4980688;28;20760;-68
2023/03/19 07:26:47;;;;;;;12.40;6.87;;;9.80;99.90;;;;;;4985609;28;20045;-69
2023/03/19 07:29:12;;;;;;;13.23;6.97;;;9.80;99.90;;;;;;4998719;28;20732;-69
2023/03/19 07:31:38;;;;;;;11.57;6.20;;;9.80;99.90;;;;;;5000808;28;20065;-69
2023/03/19 07:34:04;;;;;;;14.35;7.22;;;9.90;99.90;;;;;;4980075;28;20116;-69
2023/03/19 07:36:30;;;;;;;14.27;7.83;;;9.90;99.90;;;;;;5002094;28;20151;-70
2023/03/19 07:38:56;;;;;;;16.83;7.40;;;10.00;99.90;;;;;;4996802;28;20540;-69
2023/03/19 07:41:22;;;;;;;14.32;7.70;;;10.00;99.90;;;;;;4982854;28;20057;-69
2023/03/19 07:43:47;;;;;;;15.60;8.88;;;10.00;99.90;;;;;;4984987;28;20363;-69
2023/03/19 07:46:13;;;;;;;13.10;7.27;;;10.10;99.90;;;;;;4985605;28;20104;-69
2023/03/19 07:48:38;;;;;;;17.33;9.33;;;10.20;99.90;;;;;;5003004;28;20376;-69
2023/03/19 07:51:04;;;;;;;17.20;9.83;;;10.20;99.90;;;;;;4988213;28;20129;-69
2023/03/19 07:53:30;;;;;;;21.85;10.43;;;10.20;99.90;;;;;;4990329;28;20244;-69
2023/03/19 07:55:55;;;;;;;21.70;10.80;;;10.30;99.90;;;;;;4984861;28;20088;-69
2023/03/19 07:58:21;;;;;;;24.07;12.80;;;10.20;99.90;;;;;;4992038;28;20464;-69
2023/03/19 08:00:47;;;;;;;26.10;14.13;;;10.20;99.90;;;;;;5002052;28;20053;-69
2023/03/19 08:03:12;;;;;;;25.23;13.80;;;10.20;99.90;;;;;;4985386;28;20053;-69
2023/03/19 08:05:38;;;;;;;23.97;12.80;;;10.10;99.90;;;;;;4975575;28;20136;-69
2023/03/19 08:08:04;;;;;;;26.27;14.27;;;10.10;99.90;;;;;;4970432;28;20327;-69
2023/03/19 08:10:30;;;;;;;29.02;12.82;;;10.20;99.90;;;;;;4989047;28;20045;-69
2023/03/19 08:12:56;;;;;;;24.10;13.40;;;10.10;99.90;;;;;;4988860;28;20439;-69
2023/03/19 08:15:21;;;;;;;25.97;14.33;;;10.20;99.90;;;;;;5002158;28;20061;-70
2023/03/19 08:17:47;;;;;;;25.07;12.97;;;10.20;99.90;;;;;;5005859;28;20033;-69
2023/03/19 08:20:17;;;;;;;24.50;12.98;;;10.10;99.90;;;;;;4983636;28;20205;-69
2023/03/19 08:22:43;;;;;;;21.48;12.02;;;10.20;99.90;;;;;;5001178;28;20108;-69
2023/03/19 08:25:09;;;;;;;23.63;13.00;;;10.20;99.90;;;;;;5005312;28;20484;-69
2023/03/19 08:27:35;;;;;;;24.40;13.15;;;10.20;99.90;;;;;;4990514;28;20045;-69
2023/03/19 08:30:02;;;;;;;25.02;13.18;;;10.30;99.90;;;;;;4988082;28;20400;-69
2023/03/19 08:32:28;;;;;;;22.88;12.00;;;10.20;99.90;;;;;;4989773;28;20046;-69
2023/03/19 08:34:54;;;;;;;25.05;12.70;;;10.20;99.90;;;;;;4974013;28;20056;-69
2023/03/19 08:37:20;;;;;;;29.67;14.02;;;10.10;99.90;;;;;;5004417;28;20042;-69
2023/03/19 08:39:48;;;;;;;27.17;12.68;;;10.20;99.90;;;;;;5002737;28;20042;-69
2023/03/19 08:42:14;;;;;;;23.95;13.15;;;10.10;99.90;;;;;;4987176;28;20077;-69
2023/03/19 08:44:39;;;;;;;23.73;12.37;;;10.10;99.90;;;;;;5000015;28;20069;-69
2023/03/19 08:47:05;;;;;;;26.37;12.47;;;10.20;99.90;;;;;;4986182;28;20038;-69
2023/03/19 08:49:31;;;;;;;24.00;12.32;;;10.20;99.90;;;;;;5003948;28;20041;-69
2023/03/19 08:51:56;;;;;;;24.97;12.60;;;10.20;99.90;;;;;;4988319;28;20061;-69
2023/03/19 08:54:22;;;;;;;26.07;13.23;;;10.20;99.90;;;;;;4987615;28;20077;-69
2023/03/19 08:56:48;;;;;;;25.37;12.77;;;10.10;99.90;;;;;;4967364;28;20046;-69
2023/03/19 08:59:13;;;;;;;22.10;12.10;;;10.10;99.90;;;;;;4968564;28;20045;-70
2023/03/19 09:01:39;;;;;;;25.93;13.47;;;10.10;99.90;;;;;;4989395;28;20072;-70
2023/03/19 09:04:05;;;;;;;23.57;12.07;;;10.10;99.90;;;;;;5002114;28;20070;-69
2023/03/19 09:06:30;;;;;;;22.23;11.85;;;10.10;99.90;;;;;;4989569;28;20741;-69
2023/03/19 09:08:56;;;;;;;22.33;11.33;;;10.20;99.90;;;;;;5002179;28;20293;-69
2023/03/19 09:11:22;;;;;;;27.90;12.87;;;10.00;99.90;;;;;;4987233;28;20057;-69
2023/03/19 09:13:48;;;;;;;26.92;12.20;;;10.10;99.90;;;;;;4985468;28;20436;-69
2023/03/19 09:16:14;;;;;;;26.92;14.35;;;10.10;99.90;;;;;;4989343;28;20045;-69
2023/03/19 09:18:43;;;;;;;24.13;11.85;;;10.10;99.90;;;;;;4986379;28;20049;-69
2023/03/19 09:21:11;;;;;;;26.58;12.38;;;10.00;99.90;;;;;;4991519;28;20054;-69
2023/03/19 09:23:37;;;;;;;29.67;13.15;;;10.00;99.90;;;;;;4984125;28;20077;-69
2023/03/19 09:26:03;;;;;;;24.10;11.33;;;9.90;99.90;;;;;;5004079;28;20492;-70
2023/03/19 09:28:28;;;;;;;24.27;11.30;;;10.00;99.90;;;;;;4985013;28;20038;-69
2023/03/19 09:30:54;;;;;;;28.87;13.23;;;9.90;99.90;;;;;;5004265;28;20760;-69
2023/03/19 09:33:23;;;;;;;24.20;10.77;;;9.80;99.90;;;;;;4977280;28;20046;-69
2023/03/19 09:35:53;;;;;;;32.70;13.68;;;9.70;99.90;;;;;;4987226;28;20144;-69
2023/03/19 09:38:20;;;;;;;28.00;12.82;;;9.70;99.90;;;;;;4984315;28;20041;-70
2023/03/19 09:41:13;;;;;;;27.20;12.73;;;9.60;99.90;;;;;;4986776;28;20038;-69
2023/03/19 09:44:22;;;;;;;25.83;12.05;;;9.60;99.90;;;;;;4963480;28;20520;-69
2023/03/19 09:46:53;;;;;;;;;;;9.60;99.90;;;;;;4899537;29;20051;-70
2023/03/19 09:49:28;;;;;;;26.30;11.18;;;9.50;99.90;;;;;;4886044;29;19941;-69
2023/03/19 09:52:09;;;;;;;29.05;12.60;;;9.50;99.90;;;;;;4939908;28;20061;-69
2023/03/19 09:54:43;;;;;;;29.35;13.25;;;9.50;99.90;;;;;;4983841;28;20071;-70
2023/03/19 09:57:12;;;;;;;29.75;12.43;;;9.50;99.90;;;;;;4998209;28;20499;-69
2023/03/19 09:59:38;;;;;;;27.70;11.93;;;9.50;99.90;;;;;;5074827;22;20038;-70
2023/03/19 10:02:13;;;;;;;30.58;13.55;;;9.50;99.90;;;;;;4996971;28;20395;-70
2023/03/19 10:04:47;;;;;;;30.02;12.80;;;9.50;99.90;;;;;;5005091;28;20046;-71
2023/03/19 10:07:37;;;;;;;32.78;13.43;;;9.50;99.90;;;;;;5006518;28;20049;-70
2023/03/19 10:10:15;;;;;;;30.23;12.48;;;9.60;99.90;;;;;;4991373;28;20046;-70
2023/03/19 10:12:52;;;;;;;31.98;12.80;;;9.60;99.90;;;;;;5005371;28;20045;-71
2023/03/19 10:15:33;;;;;;;33.20;13.55;;;9.60;99.90;;;;;;4986405;28;20049;-70
2023/03/19 10:18:18;;;;;;;27.95;11.38;;;9.60;99.90;;;;;;5007366;28;20526;-71
2023/03/19 10:20:55;;;;;;;31.65;12.80;;;9.70;99.90;;;;;;4971269;28;20042;-71
2023/03/19 10:23:24;;;;;;;;;;;9.70;99.90;;;;;;4991352;28;20060;-72
2023/03/19 10:25:55;;;;;;;28.35;12.65;;;9.70;99.90;;;;;;4985036;28;20011;-71
2023/03/19 10:28:21;;;;;;;31.52;13.48;;;9.70;99.90;;;;;;5001553;28;20037;-71
2023/03/19 10:31:06;;;;;;;;;;;9.80;99.90;;;;;;4987984;28;20054;-71
2023/03/19 10:33:55;;;;;;;29.38;12.50;;;9.80;99.90;;;;;;5003926;28;19917;-71
2023/03/19 10:36:25;;;;;;;30.40;12.70;;;9.80;99.90;;;;;;5004273;28;20042;-71
2023/03/19 10:38:51;;;;;;;33.25;12.95;;;9.90;99.90;;;;;;4988647;28;20082;-70
2023/03/19 10:41:36;;;;;;;36.25;14.68;;;9.90;99.90;;;;;;5003614;28;20044;-70
2023/03/19 10:44:08;;;;;;;33.92;14.32;;;9.90;99.90;;;;;;4986585;28;20551;-70
2023/03/19 10:46:40;;;;;;;36.38;15.30;;;9.90;99.90;;;;;;4982909;28;20057;-70
2023/03/19 10:49:14;;;;;;;34.70;14.45;;;9.90;99.90;;;;;;4986644;28;20057;-70
2023/03/19 10:51:45;;;;;;;31.45;15.13;;;10.00;99.90;;;;;;4996708;28;20040;-70
2023/03/19 10:54:23;;;;;;;38.83;15.18;;;9.90;99.90;;;;;;5002831;28;20428;-70
2023/03/19 10:56:49;;;;;;;34.50;14.38;;;9.90;99.90;;;;;;4995056;28;20123;-70
2023/03/19 10:59:37;;;;;;;33.75;14.45;;;9.80;99.90;;;;;;5002971;28;20058;-70
2023/03/19 11:02:19;;;;;;;38.50;15.02;;;9.90;99.90;;;;;;5001452;28;20053;-70
2023/03/19 11:04:45;;;;;;;37.58;15.40;;;9.90;99.90;;;;;;4986118;28;20431;-71
2023/03/19 11:07:20;;;;;;;32.88;15.15;;;9.90;99.90;;;;;;4985649;28;20077;-70
2023/03/19 11:09:49;;;;;;;34.63;15.10;;;9.90;99.90;;;;;;4980984;28;20069;-70
2023/03/19 11:12:36;;;;;;;41.83;16.23;;;9.90;99.90;;;;;;4982262;28;20045;-70
2023/03/19 11:15:14;;;;;;;38.92;15.05;;;9.90;99.90;;;;;;4985528;28;20053;-70
2023/03/19 11:17:45;;;;;;;37.22;15.20;;;9.90;99.90;;;;;;4997381;28;20273;-70
2023/03/19 11:20:14;;;;;;;39.45;16.80;;;9.80;99.90;;;;;;5000254;28;20100;-70
2023/03/19 11:22:40;;;;;;;38.65;15.77;;;9.80;99.90;;;;;;5003690;28;20084;-70
2023/03/19 11:25:26;;;;;;;40.03;15.85;;;9.80;99.90;;;;;;4988366;28;20042;-69
2023/03/19 11:28:05;;;;;;;41.72;15.20;;;9.90;99.90;;;;;;5010024;28;20122;-70
2023/03/19 11:30:57;;;;;;;43.58;16.05;;;9.90;99.90;;;;;;4984150;28;20439;-70
2023/03/19 11:33:36;;;;;;;40.30;15.50;;;10.00;99.90;;;;;;5005743;28;20056;-69
2023/03/19 11:36:17;;;;;;;39.63;15.15;;;9.90;99.90;;;;;;4988156;28;20046;-70
2023/03/19 11:38:55;;;;;;;33.58;14.07;;;9.90;99.90;;;;;;4984230;28;20045;-70
2023/03/19 11:41:46;;;;;;;36.95;13.70;;;9.90;99.90;;;;;;4990538;28;20462;-70
2023/03/19 11:44:32;;;;;;;28.58;12.20;;;10.00;99.90;;;;;;4988961;28;20046;-70
2023/03/19 11:47:17;;;;;;;33.15;11.73;;;9.90;99.90;;;;;;5006893;28;20451;-70
2023/03/19 11:50:03;;;;;;;24.35;10.40;;;9.90;99.90;;;;;;5000244;28;20286;-69
2023/03/19 11:52:39;;;;;;;27.85;9.85;;;9.90;99.90;;;;;;4987211;28;20076;-70
2023/03/19 11:55:41;;;;;;;24.08;9.80;;;10.00;99.90;;;;;;5004272;28;20133;-70
2023/03/19 11:58:25;;;;;;;28.23;10.05;;;10.00;99.90;;;;;;4973525;28;20193;-69
2023/03/19 12:00:53;;;;;;;24.45;9.57;;;10.00;99.90;;;;;;4987529;28;20046;-70
2023/03/19 12:03:43;;;;;;;26.40;9.90;;;10.00;99.90;;;;;;4988252;28;20046;-69
2023/03/19 12:06:15;;;;;;;25.85;9.40;;;10.10;99.90;;;;;;4990793;28;20534;-70
2023/03/19 12:09:01;;;;;;;24.52;10.35;;;10.00;99.90;;;;;;4994784;28;20049;-70
2023/03/19 12:11:44;;;;;;;27.23;10.57;;;10.10;99.90;;;;;;4986982;28;20049;-70
2023/03/19 12:14:29;;;;;;;27.58;10.55;;;10.10;99.90;;;;;;4984476;28;20069;-70
2023/03/19 12:17:17;;;;;;;23.30;9.98;;;10.10;99.90;;;;;;4987033;28;20038;-69
2023/03/19 12:19:53;;;;;;;28.50;10.93;;;10.10;99.90;;;;;;4986272;28;20369;-69
2023/03/19 12:22:41;;;;;;;22.13;10.40;;;10.10;99.90;;;;;;4994930;28;20117;-70
2023/03/19 12:25:21;;;;;;;26.02;10.25;;;10.10;99.90;;;;;;4985564;28;20303;-69
2023/03/19 12:28:03;;;;;;;24.85;9.77;;;10.10;99.90;;;;;;5001898;28;20524;-70
2023/03/19 12:30:57;;;;;;;29.58;9.43;;;10.10;99.90;;;;;;5004507;28;20034;-70
2023/03/19 12:33:42;;;;;;;24.48;10.85;;;10.10;99.90;;;;;;4952106;28;20085;-70
2023/03/19 12:36:22;;;;;;;32.40;12.77;;;10.10;99.90;;;;;;4989019;28;20049;-70
2023/03/19 12:38:55;;;;;;;32.00;12.10;;;10.10;99.90;;;;;;5014985;28;20050;-70
2023/03/19 12:41:27;;;;;;;28.33;11.50;;;10.10;99.90;;;;;;4968325;28;20435;-70
2023/03/19 12:43:55;;;;;;;22.20;10.27;;;10.20;99.90;;;;;;4987188;28;20041;-70
2023/03/19 12:46:37;;;;;;;22.58;9.32;;;10.10;99.90;;;;;;4986297;28;20041;-70
2023/03/19 12:49:35;;;;;;;24.17;9.30;;;10.20;99.90;;;;;;4986900;28;20046;-70
2023/03/19 12:52:22;;;;;;;20.33;8.52;;;10.20;99.90;;;;;;4984491;28;20058;-70
2023/03/19 12:55:07;;;;;;;20.33;8.13;;;10.20;99.90;;;;;;4976822;28;20073;-70